sensor_id;sensor_type;location;lat;lon;timestamp;pressure;altitude;pressure_sealevel;temperature;humidity
7200;BME280;3641;49.082;8.200;2023-04-01T00:01:45;98935.72;;;8.88;86.15
7200;BME280;3641;49.082;8.200;2023-04-01T00:04:12;98934.88;;;9.08;85.90
7200;BME280;3641;49.082;8.200;2023-04-01T00:06:39;98933.00;;;8.88;85.88
7200;BME280;3641;49.082;8.200;2023-04-01T00:09:05;98940.31;;;9.01;85.08
7200;BME280;3641;49.082;8.200;2023-04-01T00:11:32;98943.25;;;9.13;85.21
7200;BME280;3641;49.082;8.200;2023-04-01T00:13:59;98943.03;;;9.01;84.89
7200;BME280;3641;49.082;8.200;2023-04-01T00:16:25;98956.84;;;8.93;84.98
7200;BME280;3641;49.082;8.200;2023-04-01T00:18:53;98954.16;;;9.13;84.50
7200;BME280;3641;49.082;8.200;2023-04-01T00:21:20;98951.22;;;9.08;84.33
7200;BME280;3641;49.082;8.200;2023-04-01T00:23:47;98953.50;;;8.98;84.84
7200;BME280;3641;49.082;8.200;2023-04-01T00:26:13;98936.97;;;8.99;83.65
7200;BME280;3641;49.082;8.200;2023-04-01T00:28:44;98938.41;;;9.22;83.71
7200;BME280;3641;49.082;8.200;2023-04-01T00:31:11;98946.38;;;9.17;83.47
7200;BME280;3641;49.082;8.200;2023-04-01T00:33:39;98938.88;;;9.05;83.37
7200;BME280;3641;49.082;8.200;2023-04-01T00:36:09;98936.34;;;9.11;83.40
7200;BME280;3641;49.082;8.200;2023-04-01T00:38:35;98930.88;;;9.11;83.40
7200;BME280;3641;49.082;8.200;2023-04-01T00:41:03;98938.63;;;9.20;82.89
7200;BME280;3641;49.082;8.200;2023-04-01T00:43:29;98942.63;;;9.18;82.28
7200;BME280;3641;49.082;8.200;2023-04-01T00:45:56;98937.59;;;9.21;82.36
7200;BME280;3641;49.082;8.200;2023-04-01T00:48:26;98936.75;;;9.27;81.56
7200;BME280;3641;49.082;8.200;2023-04-01T00:50:56;98933.19;;;9.14;82.28
7200;BME280;3641;49.082;8.200;2023-04-01T00:53:25;98927.75;;;9.14;81.64
7200;BME280;3641;49.082;8.200;2023-04-01T00:55:56;98932.53;;;9.32;81.72
7200;BME280;3641;49.082;8.200;2023-04-01T00:58:24;98919.34;;;9.35;81.97
7200;BME280;3641;49.082;8.200;2023-04-01T01:00:53;98920.19;;;9.36;81.91
7200;BME280;3641;49.082;8.200;2023-04-01T01:03:21;98914.31;;;9.32;81.14
7200;BME280;3641;49.082;8.200;2023-04-01T01:06:09;98909.91;;;9.38;80.77
7200;BME280;3641;49.082;8.200;2023-04-01T01:08:52;98900.53;;;9.27;80.31
7200;BME280;3641;49.082;8.200;2023-04-01T01:11:25;98902.38;;;9.40;79.83
7200;BME280;3641;49.082;8.200;2023-04-01T01:14:00;98904.69;;;9.43;79.42
7200;BME280;3641;49.082;8.200;2023-04-01T01:16:30;98900.47;;;9.40;78.34
7200;BME280;3641;49.082;8.200;2023-04-01T01:19:08;98920.34;;;9.48;79.17
7200;BME280;3641;49.082;8.200;2023-04-01T01:21:51;98912.38;;;9.46;78.77
7200;BME280;3641;49.082;8.200;2023-04-01T01:24:40;98887.03;;;9.52;79.26
7200;BME280;3641;49.082;8.200;2023-04-01T01:27:10;98889.59;;;9.40;78.49
7200;BME280;3641;49.082;8.200;2023-04-01T01:29:59;98902.78;;;9.43;79.28
7200;BME280;3641;49.082;8.200;2023-04-01T01:32:55;98895.22;;;9.45;79.20
7200;BME280;3641;49.082;8.200;2023-04-01T01:35:30;98896.50;;;9.36;79.12
7200;BME280;3641;49.082;8.200;2023-04-01T01:38:00;98888.53;;;9.35;79.78
7200;BME280;3641;49.082;8.200;2023-04-01T01:40:29;98893.13;;;9.54;79.36
7200;BME280;3641;49.082;8.200;2023-04-01T01:42:59;98894.63;;;9.37;79.11
7200;BME280;3641;49.082;8.200;2023-04-01T01:45:27;98893.78;;;9.43;78.95
7200;BME280;3641;49.082;8.200;2023-04-01T01:47:56;98884.75;;;9.42;78.79
7200;BME280;3641;49.082;8.200;2023-04-01T01:50:24;98891.44;;;9.53;78.98
7200;BME280;3641;49.082;8.200;2023-04-01T01:53:00;98895.63;;;9.56;78.48
7200;BME280;3641;49.082;8.200;2023-04-01T01:55:30;98890.84;;;9.44;78.43
7200;BME280;3641;49.082;8.200;2023-04-01T01:58:00;98896.94;;;9.40;78.20
7200;BME280;3641;49.082;8.200;2023-04-01T02:00:28;98900.88;;;9.44;78.02
7200;BME280;3641;49.082;8.200;2023-04-01T02:02:56;98897.28;;;9.57;78.18
7200;BME280;3641;49.082;8.200;2023-04-01T02:05:25;98884.50;;;9.57;77.53
7200;BME280;3641;49.082;8.200;2023-04-01T02:07:57;98881.59;;;9.45;77.02
7200;BME280;3641;49.082;8.200;2023-04-01T02:10:26;98880.75;;;9.52;76.66
7200;BME280;3641;49.082;8.200;2023-04-01T02:12:58;98891.66;;;9.52;75.93
7200;BME280;3641;49.082;8.200;2023-04-01T02:15:28;98884.72;;;9.56;75.49
7200;BME280;3641;49.082;8.200;2023-04-01T02:17:58;98889.97;;;9.57;75.53
7200;BME280;3641;49.082;8.200;2023-04-01T02:20:27;98888.47;;;9.61;76.42
7200;BME280;3641;49.082;8.200;2023-04-01T02:22:57;98891.66;;;9.52;76.15
7200;BME280;3641;49.082;8.200;2023-04-01T02:25:28;98896.88;;;9.53;76.10
7200;BME280;3641;49.082;8.200;2023-04-01T02:27:58;98879.28;;;9.49;75.92
7200;BME280;3641;49.082;8.200;2023-04-01T02:30:27;98889.31;;;9.55;75.62
7200;BME280;3641;49.082;8.200;2023-04-01T02:32:54;98885.38;;;9.51;75.76
7200;BME280;3641;49.082;8.200;2023-04-01T02:35:22;98896.03;;;9.59;76.05
7200;BME280;3641;49.082;8.200;2023-04-01T02:37:50;98892.47;;;9.59;75.72
7200;BME280;3641;49.082;8.200;2023-04-01T02:40:19;98886.88;;;9.40;77.05
7200;BME280;3641;49.082;8.200;2023-04-01T02:42:46;98900.50;;;9.34;77.94
7200;BME280;3641;49.082;8.200;2023-04-01T02:45:13;98899.44;;;9.41;77.77
7200;BME280;3641;49.082;8.200;2023-04-01T02:47:40;98885.19;;;9.33;78.30
7200;BME280;3641;49.082;8.200;2023-04-01T02:50:08;98891.91;;;9.30;78.06
7200;BME280;3641;49.082;8.200;2023-04-01T02:52:35;98894.44;;;9.25;78.59
7200;BME280;3641;49.082;8.200;2023-04-01T02:55:03;98900.28;;;9.42;78.97
7200;BME280;3641;49.082;8.200;2023-04-01T02:57:31;98899.84;;;9.45;78.90
7200;BME280;3641;49.082;8.200;2023-04-01T02:59:58;98898.84;;;9.26;78.47
7200;BME280;3641;49.082;8.200;2023-04-01T03:02:24;98895.91;;;9.27;78.51
7200;BME280;3641;49.082;8.200;2023-04-01T03:04:51;98897.81;;;9.27;78.83
7200;BME280;3641;49.082;8.200;2023-04-01T03:07:17;98894.88;;;9.29;79.15
7200;BME280;3641;49.082;8.200;2023-04-01T03:09:44;98891.28;;;9.28;78.26
7200;BME280;3641;49.082;8.200;2023-04-01T03:12:11;98896.53;;;9.23;78.31
7200;BME280;3641;49.082;8.200;2023-04-01T03:14:39;98910.34;;;9.28;78.21
7200;BME280;3641;49.082;8.200;2023-04-01T03:17:05;98895.22;;;9.45;77.88
7200;BME280;3641;49.082;8.200;2023-04-01T03:19:32;98907.59;;;9.48;77.56
7200;BME280;3641;49.082;8.200;2023-04-01T03:21:58;98910.78;;;9.18;79.71
7200;BME280;3641;49.082;8.200;2023-04-01T03:24:25;98897.16;;;9.18;81.36
7200;BME280;3641;49.082;8.200;2023-04-01T03:26:51;98902.81;;;9.17;82.02
7200;BME280;3641;49.082;8.200;2023-04-01T03:29:18;98908.09;;;8.91;83.95
7200;BME280;3641;49.082;8.200;2023-04-01T03:31:45;98917.09;;;8.92;86.38
7200;BME280;3641;49.082;8.200;2023-04-01T03:34:12;98917.09;;;8.92;87.02
7200;BME280;3641;49.082;8.200;2023-04-01T03:36:39;98917.50;;;8.76;87.54
7200;BME280;3641;49.082;8.200;2023-04-01T03:39:05;98913.75;;;8.63;88.90
7200;BME280;3641;49.082;8.200;2023-04-01T03:41:32;98907.66;;;8.54;89.66
7200;BME280;3641;49.082;8.200;2023-04-01T03:43:58;98904.13;;;8.54;88.97
7200;BME280;3641;49.082;8.200;2023-04-01T03:46:25;98906.63;;;8.56;90.03
7200;BME280;3641;49.082;8.200;2023-04-01T03:48:52;98890.53;;;8.47;88.90
7200;BME280;3641;49.082;8.200;2023-04-01T03:51:19;98891.56;;;8.80;88.50
7200;BME280;3641;49.082;8.200;2023-04-01T03:53:45;98900.97;;;8.50;88.26
7200;BME280;3641;49.082;8.200;2023-04-01T03:56:12;98892.38;;;8.53;88.93
7200;BME280;3641;49.082;8.200;2023-04-01T03:58:38;98888.22;;;8.58;87.22
7200;BME280;3641;49.082;8.200;2023-04-01T04:01:13;98897.00;;;8.60;87.65
7200;BME280;3641;49.082;8.200;2023-04-01T04:03:40;98886.13;;;8.66;86.84
7200;BME280;3641;49.082;8.200;2023-04-01T04:06:11;98891.56;;;8.46;86.49
7200;BME280;3641;49.082;8.200;2023-04-01T04:08:38;98886.13;;;8.60;85.96
7200;BME280;3641;49.082;8.200;2023-04-01T04:11:04;98890.09;;;8.50;86.02
7200;BME280;3641;49.082;8.200;2023-04-01T04:13:31;98887.59;;;8.49;85.32
7200;BME280;3641;49.082;8.200;2023-04-01T04:15:57;98882.34;;;8.47;85.50
7200;BME280;3641;49.082;8.200;2023-04-01T04:18:24;98883.38;;;8.60;85.27
7200;BME280;3641;49.082;8.200;2023-04-01T04:20:51;98886.53;;;8.50;85.66
7200;BME280;3641;49.082;8.200;2023-04-01T04:23:18;98890.72;;;8.52;85.27
7200;BME280;3641;49.082;8.200;2023-04-01T04:25:53;98891.97;;;8.57;84.92
7200;BME280;3641;49.082;8.200;2023-04-01T04:28:19;98880.69;;;8.66;84.16
7200;BME280;3641;49.082;8.200;2023-04-01T04:30:46;98887.19;;;8.59;85.12
7200;BME280;3641;49.082;8.200;2023-04-01T04:33:12;98891.34;;;8.54;84.44
7200;BME280;3641;49.082;8.200;2023-04-01T04:35:39;98875.25;;;8.73;84.30
7200;BME280;3641;49.082;8.200;2023-04-01T04:38:05;98876.09;;;8.60;84.22
7200;BME280;3641;49.082;8.200;2023-04-01T04:40:35;98875.03;;;8.61;84.00
7200;BME280;3641;49.082;8.200;2023-04-01T04:43:02;98872.94;;;8.63;84.17
7200;BME280;3641;49.082;8.200;2023-04-01T04:45:28;98858.06;;;8.72;83.78
7200;BME280;3641;49.082;8.200;2023-04-01T04:47:55;98871.47;;;8.67;83.52
7200;BME280;3641;49.082;8.200;2023-04-01T04:50:22;98857.88;;;8.67;83.74
7200;BME280;3641;49.082;8.200;2023-04-01T04:52:48;98875.88;;;8.68;82.78
7200;BME280;3641;49.082;8.200;2023-04-01T04:55:15;98853.69;;;8.71;81.91
7200;BME280;3641;49.082;8.200;2023-04-01T04:57:43;98858.91;;;8.80;82.81
7200;BME280;3641;49.082;8.200;2023-04-01T05:00:10;98853.88;;;8.90;81.79
7200;BME280;3641;49.082;8.200;2023-04-01T05:02:37;98862.06;;;8.77;81.72
7200;BME280;3641;49.082;8.200;2023-04-01T05:05:04;98848.03;;;8.86;81.69
7200;BME280;3641;49.082;8.200;2023-04-01T05:07:31;98857.03;;;8.80;82.32
7200;BME280;3641;49.082;8.200;2023-04-01T05:09:58;98855.97;;;8.81;81.37
7200;BME280;3641;49.082;8.200;2023-04-01T05:12:25;98851.38;;;8.95;81.68
7200;BME280;3641;49.082;8.200;2023-04-01T05:14:53;98847.19;;;8.93;82.41
7200;BME280;3641;49.082;8.200;2023-04-01T05:17:20;98862.88;;;8.77;82.96
7200;BME280;3641;49.082;8.200;2023-04-01T05:19:47;98864.97;;;8.88;82.90
7200;BME280;3641;49.082;8.200;2023-04-01T05:22:13;98858.50;;;8.83;82.90
7200;BME280;3641;49.082;8.200;2023-04-01T05:24:40;98857.22;;;8.79;83.28
7200;BME280;3641;49.082;8.200;2023-04-01T05:27:06;98855.34;;;8.93;82.40
7200;BME280;3641;49.082;8.200;2023-04-01T05:29:32;98858.91;;;8.86;82.75
7200;BME280;3641;49.082;8.200;2023-04-01T05:32:01;98857.22;;;8.85;82.65
7200;BME280;3641;49.082;8.200;2023-04-01T05:34:28;98846.53;;;9.04;82.15
7200;BME280;3641;49.082;8.200;2023-04-01T05:36:54;98851.75;;;9.05;81.68
7200;BME280;3641;49.082;8.200;2023-04-01T05:39:21;98848.66;;;8.95;81.58
7200;BME280;3641;49.082;8.200;2023-04-01T05:41:48;98861.00;;;8.84;83.04
7200;BME280;3641;49.082;8.200;2023-04-01T05:44:15;98846.34;;;8.92;81.70
7200;BME280;3641;49.082;8.200;2023-04-01T05:46:41;98845.91;;;9.02;81.96
7200;BME280;3641;49.082;8.200;2023-04-01T05:49:09;98849.50;;;8.82;81.99
7200;BME280;3641;49.082;8.200;2023-04-01T05:51:36;98852.59;;;8.99;82.36
7200;BME280;3641;49.082;8.200;2023-04-01T05:54:04;98862.25;;;8.82;83.89
7200;BME280;3641;49.082;8.200;2023-04-01T05:56:30;98864.13;;;8.88;83.83
7200;BME280;3641;49.082;8.200;2023-04-01T05:58:57;98860.38;;;8.69;85.73
7200;BME280;3641;49.082;8.200;2023-04-01T06:01:23;98868.97;;;8.59;86.43
7200;BME280;3641;49.082;8.200;2023-04-01T06:03:50;98856.22;;;8.73;86.68
7200;BME280;3641;49.082;8.200;2023-04-01T06:06:22;98867.31;;;8.65;87.02
7200;BME280;3641;49.082;8.200;2023-04-01T06:08:49;98871.28;;;8.49;88.37
7200;BME280;3641;49.082;8.200;2023-04-01T06:11:28;98864.31;;;8.40;88.60
7200;BME280;3641;49.082;8.200;2023-04-01T06:14:11;98864.34;;;8.46;88.91
7200;BME280;3641;49.082;8.200;2023-04-01T06:16:56;98865.84;;;8.56;88.27
7200;BME280;3641;49.082;8.200;2023-04-01T06:19:33;98869.78;;;8.46;88.89
7200;BME280;3641;49.082;8.200;2023-04-01T06:22:12;98871.47;;;8.47;90.99
7200;BME280;3641;49.082;8.200;2023-04-01T06:24:53;98869.78;;;8.40;91.11
7200;BME280;3641;49.082;8.200;2023-04-01T06:27:31;98878.09;;;8.25;91.61
7200;BME280;3641;49.082;8.200;2023-04-01T06:30:12;98878.91;;;8.12;93.72
7200;BME280;3641;49.082;8.200;2023-04-01T06:35:56;98882.09;;;8.22;93.86
7200;BME280;3641;49.082;8.200;2023-04-01T06:38:40;98884.34;;;8.12;95.60
7200;BME280;3641;49.082;8.200;2023-04-01T06:41:28;98879.69;;;7.86;96.69
7200;BME280;3641;49.082;8.200;2023-04-01T06:44:09;98877.59;;;7.88;96.70
7200;BME280;3641;49.082;8.200;2023-04-01T06:46:43;98874.88;;;7.88;97.75
7200;BME280;3641;49.082;8.200;2023-04-01T06:49:24;98889.31;;;7.88;97.80
7200;BME280;3641;49.082;8.200;2023-04-01T06:52:00;98880.97;;;7.90;97.56
7200;BME280;3641;49.082;8.200;2023-04-01T06:54:36;98882.38;;;7.79;98.20
7200;BME280;3641;49.082;8.200;2023-04-01T06:57:13;98877.16;;;7.84;98.44
7200;BME280;3641;49.082;8.200;2023-04-01T06:59:42;98867.59;;;8.02;97.45
7200;BME280;3641;49.082;8.200;2023-04-01T07:02:18;98869.69;;;7.99;98.76
7200;BME280;3641;49.082;8.200;2023-04-01T07:04:48;98874.66;;;7.82;99.12
7200;BME280;3641;49.082;8.200;2023-04-01T07:07:24;98873.22;;;7.93;99.36
7200;BME280;3641;49.082;8.200;2023-04-01T07:09:56;98873.66;;;7.90;100.00
7200;BME280;3641;49.082;8.200;2023-04-01T07:12:33;98871.97;;;7.96;99.29
7200;BME280;3641;49.082;8.200;2023-04-01T07:15:13;98873.50;;;8.18;97.91
7200;BME280;3641;49.082;8.200;2023-04-01T07:17:43;98882.84;;;7.96;98.83
7200;BME280;3641;49.082;8.200;2023-04-01T07:20:15;98886.16;;;7.91;98.90
7200;BME280;3641;49.082;8.200;2023-04-01T07:22:45;98879.09;;;8.04;98.93
7200;BME280;3641;49.082;8.200;2023-04-01T07:25:16;98884.53;;;8.10;99.85
7200;BME280;3641;49.082;8.200;2023-04-01T07:27:44;98874.47;;;7.91;100.00
7200;BME280;3641;49.082;8.200;2023-04-01T07:30:15;98873.25;;;8.07;100.00
7200;BME280;3641;49.082;8.200;2023-04-01T07:32:44;98882.63;;;7.91;100.00
7200;BME280;3641;49.082;8.200;2023-04-01T07:35:23;98882.22;;;8.00;100.00
7200;BME280;3641;49.082;8.200;2023-04-01T07:38:04;98885.50;;;7.69;100.00
7200;BME280;3641;49.082;8.200;2023-04-01T07:40:39;98892.16;;;7.67;100.00
7200;BME280;3641;49.082;8.200;2023-04-01T07:43:32;98909.66;;;7.64;100.00
7200;BME280;3641;49.082;8.200;2023-04-01T07:46:11;98897.59;;;7.73;100.00
7200;BME280;3641;49.082;8.200;2023-04-01T07:48:48;98890.22;;;7.54;100.00
7200;BME280;3641;49.082;8.200;2023-04-01T07:51:24;98895.03;;;7.58;100.00
7200;BME280;3641;49.082;8.200;2023-04-01T07:54:01;98902.25;;;7.93;100.00
7200;BME280;3641;49.082;8.200;2023-04-01T07:56:37;98896.97;;;7.71;100.00
7200;BME280;3641;49.082;8.200;2023-04-01T07:59:14;98907.22;;;7.69;100.00
7200;BME280;3641;49.082;8.200;2023-04-01T08:01:49;98896.09;;;7.64;100.00
7200;BME280;3641;49.082;8.200;2023-04-01T08:04:35;98904.69;;;7.68;100.00
7200;BME280;3641;49.082;8.200;2023-04-01T08:07:07;98899.47;;;7.66;100.00
7200;BME280;3641;49.082;8.200;2023-04-01T08:09:42;98897.81;;;7.78;100.00
7200;BME280;3641;49.082;8.200;2023-04-01T08:12:23;98899.72;;;7.78;100.00
7200;BME280;3641;49.082;8.200;2023-04-01T08:15:01;98901.00;;;7.82;100.00
7200;BME280;3641;49.082;8.200;2023-04-01T08:17:36;98909.41;;;8.00;100.00
7200;BME280;3641;49.082;8.200;2023-04-01T08:20:27;98908.94;;;7.84;100.00
7200;BME280;3641;49.082;8.200;2023-04-01T08:22:58;98918.78;;;7.91;100.00
7200;BME280;3641;49.082;8.200;2023-04-01T08:25:28;98919.00;;;7.90;100.00
7200;BME280;3641;49.082;8.200;2023-04-01T08:28:00;98917.03;;;7.77;100.00
7200;BME280;3641;49.082;8.200;2023-04-01T08:30:38;98919.16;;;7.81;100.00
7200;BME280;3641;49.082;8.200;2023-04-01T08:33:12;98923.16;;;7.92;100.00
7200;BME280;3641;49.082;8.200;2023-04-01T08:35:45;98919.44;;;8.00;100.00
7200;BME280;3641;49.082;8.200;2023-04-01T08:38:18;98920.06;;;7.95;100.00
7200;BME280;3641;49.082;8.200;2023-04-01T08:41:01;98920.75;;;8.17;100.00
7200;BME280;3641;49.082;8.200;2023-04-01T08:43:59;98927.38;;;8.02;100.00
7200;BME280;3641;49.082;8.200;2023-04-01T08:46:56;98921.53;;;7.98;100.00
7200;BME280;3641;49.082;8.200;2023-04-01T08:49:42;98924.91;;;8.07;100.00
7200;BME280;3641;49.082;8.200;2023-04-01T08:52:27;98930.00;;;8.30;100.00
7200;BME280;3641;49.082;8.200;2023-04-01T08:58:19;98925.50;;;8.09;100.00
7200;BME280;3641;49.082;8.200;2023-04-01T09:00:53;98929.31;;;8.14;100.00
7200;BME280;3641;49.082;8.200;2023-04-01T09:03:41;98937.63;;;7.99;100.00
7200;BME280;3641;49.082;8.200;2023-04-01T09:06:24;98940.16;;;8.08;100.00
7200;BME280;3641;49.082;8.200;2023-04-01T09:09:09;98937.50;;;8.28;100.00
7200;BME280;3641;49.082;8.200;2023-04-01T09:11:54;98937.28;;;8.29;100.00
7200;BME280;3641;49.082;8.200;2023-04-01T09:14:46;98948.56;;;8.19;100.00
7200;BME280;3641;49.082;8.200;2023-04-01T09:17:49;98950.44;;;8.12;100.00
7200;BME280;3641;49.082;8.200;2023-04-01T09:20:45;98956.53;;;8.28;100.00
7200;BME280;3641;49.082;8.200;2023-04-01T09:23:33;98956.09;;;8.17;100.00
7200;BME280;3641;49.082;8.200;2023-04-01T09:26:25;98947.06;;;8.10;100.00
7200;BME280;3641;49.082;8.200;2023-04-01T09:29:02;98954.00;;;8.19;100.00
7200;BME280;3641;49.082;8.200;2023-04-01T09:31:53;98952.56;;;8.30;100.00
7200;BME280;3641;49.082;8.200;2023-04-01T09:34:55;98952.34;;;8.25;100.00
7200;BME280;3641;49.082;8.200;2023-04-01T09:37:35;98956.34;;;8.36;100.00
7200;BME280;3641;49.082;8.200;2023-04-01T09:40:18;98958.06;;;8.44;100.00
7200;BME280;3641;49.082;8.200;2023-04-01T09:43:06;98956.63;;;8.48;100.00
7200;BME280;3641;49.082;8.200;2023-04-01T09:45:51;98971.44;;;8.45;100.00
7200;BME280;3641;49.082;8.200;2023-04-01T09:48:29;98959.69;;;8.31;100.00
7200;BME280;3641;49.082;8.200;2023-04-01T09:51:06;98971.41;;;8.32;100.00
7200;BME280;3641;49.082;8.200;2023-04-01T09:53:48;98963.88;;;8.41;100.00
7200;BME280;3641;49.082;8.200;2023-04-01T09:56:52;98970.22;;;8.48;100.00
7200;BME280;3641;49.082;8.200;2023-04-01T09:59:43;98971.69;;;8.64;100.00
7200;BME280;3641;49.082;8.200;2023-04-01T10:02:45;98973.53;;;8.43;100.00
7200;BME280;3641;49.082;8.200;2023-04-01T10:12:00;98969.38;;;8.47;100.00
7200;BME280;3641;49.082;8.200;2023-04-01T10:14:43;98979.63;;;8.52;100.00
7200;BME280;3641;49.082;8.200;2023-04-01T10:18:13;98977.56;;;8.54;100.00
7200;BME280;3641;49.082;8.200;2023-04-01T10:21:04;98976.53;;;8.62;100.00
7200;BME280;3641;49.082;8.200;2023-04-01T10:23:48;98979.88;;;8.64;100.00
7200;BME280;3641;49.082;8.200;2023-04-01T10:26:36;98977.16;;;8.64;100.00
7200;BME280;3641;49.082;8.200;2023-04-01T10:29:30;98976.94;;;8.72;100.00
7200;BME280;3641;49.082;8.200;2023-04-01T10:32:32;98973.59;;;8.70;100.00
7200;BME280;3641;49.082;8.200;2023-04-01T10:35:18;98974.00;;;8.73;100.00
7200;BME280;3641;49.082;8.200;2023-04-01T10:38:19;98991.78;;;8.69;100.00
7200;BME280;3641;49.082;8.200;2023-04-01T10:41:11;98973.41;;;8.91;100.00
7200;BME280;3641;49.082;8.200;2023-04-01T10:44:11;98969.22;;;8.96;100.00
7200;BME280;3641;49.082;8.200;2023-04-01T10:47:19;98975.72;;;9.21;100.00
7200;BME280;3641;49.082;8.200;2023-04-01T10:50:14;98976.13;;;8.98;100.00
7200;BME280;3641;49.082;8.200;2023-04-01T10:53:11;98970.69;;;9.05;100.00
7200;BME280;3641;49.082;8.200;2023-04-01T10:56:09;98978.22;;;9.16;100.00
7200;BME280;3641;49.082;8.200;2023-04-01T10:59:11;98974.84;;;9.14;100.00
7200;BME280;3641;49.082;8.200;2023-04-01T11:05:30;98972.78;;;9.23;100.00
7200;BME280;3641;49.082;8.200;2023-04-01T11:14:35;98995.81;;;9.34;98.78
7200;BME280;3641;49.082;8.200;2023-04-01T11:17:27;98986.38;;;9.36;99.13
7200;BME280;3641;49.082;8.200;2023-04-01T11:20:45;98992.66;;;9.30;99.86
7200;BME280;3641;49.082;8.200;2023-04-01T11:23:32;98987.44;;;9.29;100.00
7200;BME280;3641;49.082;8.200;2023-04-01T11:26:14;98982.22;;;9.27;99.78
7200;BME280;3641;49.082;8.200;2023-04-01T11:29:03;98996.22;;;9.44;100.00
7200;BME280;3641;49.082;8.200;2023-04-01T11:31:57;98989.94;;;9.37;100.00
7200;BME280;3641;49.082;8.200;2023-04-01T11:34:55;98981.78;;;9.23;100.00
7200;BME280;3641;49.082;8.200;2023-04-01T11:37:32;98993.47;;;9.51;100.00
7200;BME280;3641;49.082;8.200;2023-04-01T11:40:12;98993.69;;;9.56;100.00
7200;BME280;3641;49.082;8.200;2023-04-01T11:42:49;99002.31;;;9.33;100.00
7200;BME280;3641;49.082;8.200;2023-04-01T11:45:26;99005.84;;;9.26;100.00
7200;BME280;3641;49.082;8.200;2023-04-01T11:48:13;99012.75;;;9.49;100.00
7200;BME280;3641;49.082;8.200;2023-04-01T11:50:53;99018.63;;;9.39;100.00
7200;BME280;3641;49.082;8.200;2023-04-01T11:53:31;99017.16;;;9.50;99.16
7200;BME280;3641;49.082;8.200;2023-04-01T11:56:14;99017.78;;;9.52;100.00
7200;BME280;3641;49.082;8.200;2023-04-01T11:59:12;99018.44;;;9.27;100.00
7200;BME280;3641;49.082;8.200;2023-04-01T12:01:47;99015.47;;;9.49;99.66
7200;BME280;3641;49.082;8.200;2023-04-01T12:04:34;99028.69;;;9.39;100.00
7200;BME280;3641;49.082;8.200;2023-04-01T12:07:15;99028.06;;;9.17;100.00
7200;BME280;3641;49.082;8.200;2023-04-01T12:09:52;99023.03;;;9.14;100.00
7200;BME280;3641;49.082;8.200;2023-04-01T12:12:29;99021.59;;;9.18;100.00
7200;BME280;3641;49.082;8.200;2023-04-01T12:15:05;99021.78;;;9.30;100.00
7200;BME280;3641;49.082;8.200;2023-04-01T12:17:44;99024.69;;;9.35;100.00
7200;BME280;3641;49.082;8.200;2023-04-01T12:20:26;99026.16;;;9.17;100.00
7200;BME280;3641;49.082;8.200;2023-04-01T12:23:02;99036.22;;;9.17;100.00
7200;BME280;3641;49.082;8.200;2023-04-01T12:25:49;99035.41;;;9.30;100.00
7200;BME280;3641;49.082;8.200;2023-04-01T12:28:23;99025.56;;;9.29;100.00
7200;BME280;3641;49.082;8.200;2023-04-01T12:31:13;99031.00;;;9.35;100.00
7200;BME280;3641;49.082;8.200;2023-04-01T12:33:50;99030.16;;;9.28;100.00
7200;BME280;3641;49.082;8.200;2023-04-01T12:36:30;99039.81;;;9.24;100.00
7200;BME280;3641;49.082;8.200;2023-04-01T12:39:44;99039.38;;;9.20;100.00
7200;BME280;3641;49.082;8.200;2023-04-01T12:42:27;99026.81;;;9.33;100.00
7200;BME280;3641;49.082;8.200;2023-04-01T12:45:11;99044.19;;;9.52;100.00
7200;BME280;3641;49.082;8.200;2023-04-01T12:48:03;99036.84;;;9.45;98.76
7200;BME280;3641;49.082;8.200;2023-04-01T12:51:03;99041.47;;;9.45;99.44
7200;BME280;3641;49.082;8.200;2023-04-01T12:53:46;99040.63;;;9.38;99.10
7200;BME280;3641;49.082;8.200;2023-04-01T12:56:22;99035.41;;;9.30;98.77
7200;BME280;3641;49.082;8.200;2023-04-01T13:02:01;99044.38;;;9.30;98.85
7200;BME280;3641;49.082;8.200;2023-04-01T13:07:47;99048.59;;;9.53;98.09
7200;BME280;3641;49.082;8.200;2023-04-01T13:10:29;99051.31;;;9.53;97.04
7200;BME280;3641;49.082;8.200;2023-04-01T13:13:23;99051.09;;;9.61;96.96
7200;BME280;3641;49.082;8.200;2023-04-01T13:15:58;99048.78;;;9.64;96.62
7200;BME280;3641;49.082;8.200;2023-04-01T13:18:39;99058.03;;;9.50;96.59
7200;BME280;3641;49.082;8.200;2023-04-01T13:21:13;99067.03;;;9.44;96.43
7200;BME280;3641;49.082;8.200;2023-04-01T13:23:52;99060.31;;;9.53;96.14
7200;BME280;3641;49.082;8.200;2023-04-01T13:26:28;99060.53;;;9.38;95.70
7200;BME280;3641;49.082;8.200;2023-04-01T13:29:02;99068.06;;;9.56;96.31
7200;BME280;3641;49.082;8.200;2023-04-01T13:31:38;99073.53;;;9.56;95.15
7200;BME280;3641;49.082;8.200;2023-04-01T13:34:23;99069.97;;;9.62;95.91
7200;BME280;3641;49.082;8.200;2023-04-01T13:37:02;99082.09;;;9.67;94.74
7200;BME280;3641;49.082;8.200;2023-04-01T13:39:43;99081.88;;;9.68;94.63
7200;BME280;3641;49.082;8.200;2023-04-01T13:42:25;99077.09;;;9.70;93.94
7200;BME280;3641;49.082;8.200;2023-04-01T13:44:56;99086.91;;;9.91;94.12
7200;BME280;3641;49.082;8.200;2023-04-01T13:50:37;99081.88;;;9.88;92.80
7200;BME280;3641;49.082;8.200;2023-04-01T13:53:51;99091.28;;;10.06;92.87
7200;BME280;3641;49.082;8.200;2023-04-01T13:56:33;99086.06;;;9.97;91.39
7200;BME280;3641;49.082;8.200;2023-04-01T13:59:25;99089.41;;;9.99;91.36
7200;BME280;3641;49.082;8.200;2023-04-01T14:02:01;99108.47;;;10.06;90.94
7200;BME280;3641;49.082;8.200;2023-04-01T14:04:44;99085.19;;;10.10;90.92
7200;BME280;3641;49.082;8.200;2023-04-01T14:07:21;99089.22;;;9.94;92.24
7200;BME280;3641;49.082;8.200;2023-04-01T14:09:59;99094.63;;;10.08;91.85
7200;BME280;3641;49.082;8.200;2023-04-01T14:12:39;99098.19;;;10.08;92.38
7200;BME280;3641;49.082;8.200;2023-04-01T14:15:28;99103.47;;;9.96;93.72
7200;BME280;3641;49.082;8.200;2023-04-01T14:18:13;99108.28;;;9.94;93.79
7200;BME280;3641;49.082;8.200;2023-04-01T14:20:50;99106.84;;;9.58;94.79
7200;BME280;3641;49.082;8.200;2023-04-01T14:23:35;99106.44;;;9.75;95.32
7200;BME280;3641;49.082;8.200;2023-04-01T14:26:22;99109.16;;;9.75;95.51
7200;BME280;3641;49.082;8.200;2023-04-01T14:28:57;99099.94;;;9.69;95.78
7200;BME280;3641;49.082;8.200;2023-04-01T14:31:41;99110.00;;;9.75;95.66
7200;BME280;3641;49.082;8.200;2023-04-01T14:34:21;99111.22;;;9.99;93.99
7200;BME280;3641;49.082;8.200;2023-04-01T14:37:03;99111.66;;;9.90;94.40
7200;BME280;3641;49.082;8.200;2023-04-01T14:39:55;99117.53;;;9.73;94.66
7200;BME280;3641;49.082;8.200;2023-04-01T14:42:48;99109.56;;;9.72;94.25
7200;BME280;3641;49.082;8.200;2023-04-01T14:45:45;99115.66;;;9.74;93.81
7200;BME280;3641;49.082;8.200;2023-04-01T14:48:23;99121.28;;;9.86;94.51
7200;BME280;3641;49.082;8.200;2023-04-01T14:50:53;99118.56;;;9.79;95.07
7200;BME280;3641;49.082;8.200;2023-04-01T14:53:27;99122.34;;;9.71;95.25